Time;durP1;ratioP1;P1;durP2;ratioP2;P2;SDS_P1;SDS_P2;PMS_P1;PMS_P2;Temp;Humidity;BMP_temperature;BMP_pressure;BME280_temperature;BME280_humidity;BME280_pressure;Samples;Min_cycle;Max_cycle;Signal;HPM_P1;HPM_P2
2022/03/11 00:00:36;;;;;;;4.68;4.13;;;20.30;78.40;;;;;;4227405;28;20299;-73
2022/03/11 00:02:38;;;;;;;5.50;4.32;;;20.30;78.40;;;;;;4225306;28;20218;-73
2022/03/11 00:04:40;;;;;;;4.28;3.88;;;20.20;78.30;;;;;;4225541;28;20675;-73
2022/03/11 00:06:43;;;;;;;4.50;3.90;;;20.20;78.30;;;;;;4225354;28;20278;-73
2022/03/11 00:08:45;;;;;;;4.50;4.05;;;20.20;78.30;;;;;;4224842;28;20616;-73
2022/03/11 00:10:48;;;;;;;4.85;4.30;;;20.20;78.30;;;;;;4226688;28;20213;-73
2022/03/11 00:12:51;;;;;;;4.75;4.28;;;20.20;78.20;;;;;;4226476;28;20256;-73
2022/03/11 00:14:54;;;;;;;4.32;3.83;;;20.20;78.30;;;;;;4226021;28;20225;-73
2022/03/11 00:16:56;;;;;;;5.50;4.28;;;20.20;78.30;;;;;;4225215;28;20233;-73
2022/03/11 00:18:59;;;;;;;4.10;3.70;;;20.20;78.30;;;;;;4224949;28;20283;-73
2022/03/11 00:21:01;;;;;;;4.47;4.07;;;20.20;78.30;;;;;;4225552;28;20263;-73
2022/03/11 00:23:04;;;;;;;4.55;4.15;;;20.10;78.10;;;;;;4225680;28;20269;-73
2022/03/11 00:25:09;;;;;;;5.00;4.35;;;20.10;78.20;;;;;;4225035;28;20218;-73
2022/03/11 00:27:13;;;;;;;4.50;4.03;;;20.10;78.20;;;;;;4226198;28;20666;-73
2022/03/11 00:29:17;;;;;;;4.82;3.97;;;20.10;78.00;;;;;;4226411;28;20218;-73
2022/03/11 00:31:20;;;;;;;4.57;4.03;;;20.10;78.20;;;;;;4224872;28;20586;-72
2022/03/11 00:33:22;;;;;;;4.28;3.88;;;20.10;78.30;;;;;;4225910;28;20266;-72
2022/03/11 00:35:24;;;;;;;4.65;4.18;;;20.10;78.10;;;;;;4225593;28;20213;-73
2022/03/11 00:37:27;;;;;;;5.05;3.92;;;20.10;78.30;;;;;;4224510;28;20251;-73
2022/03/11 00:39:29;;;;;;;5.35;4.00;;;20.10;78.20;;;;;;4225585;28;20230;-72
2022/03/11 00:41:32;;;;;;;4.95;4.20;;;20.00;78.10;;;;;;4223824;28;20205;-73
2022/03/11 00:43:34;;;;;;;4.20;3.80;;;20.00;79.30;;;;;;4226207;28;20294;-73
2022/03/11 00:45:38;;;;;;;4.68;3.95;;;20.00;78.20;;;;;;4224529;28;20213;-73
2022/03/11 00:47:41;;;;;;;4.10;3.70;;;20.00;78.10;;;;;;4225321;28;20218;-73
2022/03/11 00:49:43;;;;;;;4.43;4.03;;;20.00;78.30;;;;;;4225604;28;20655;-73
2022/03/11 00:51:45;;;;;;;5.68;3.92;;;20.00;78.20;;;;;;4226010;28;20263;-72
2022/03/11 00:53:48;;;;;;;3.90;3.60;;;20.00;78.20;;;;;;4224341;28;20205;-73
2022/03/11 00:55:50;;;;;;;4.50;4.10;;;20.00;78.00;;;;;;4224953;28;20222;-72
2022/03/11 00:57:52;;;;;;;4.90;4.13;;;19.90;78.00;;;;;;4225913;28;20266;-73
2022/03/11 00:59:55;;;;;;;4.45;4.05;;;19.90;78.10;;;;;;4226041;28;20287;-73
2022/03/11 01:01:59;;;;;;;4.05;3.65;;;20.00;78.10;;;;;;4208260;28;20215;-73
2022/03/11 01:04:01;;;;;;;4.75;4.20;;;20.00;78.20;;;;;;4225786;28;20221;-73
2022/03/11 01:06:04;;;;;;;4.30;3.90;;;20.00;78.30;;;;;;4225997;28;20226;-73
2022/03/11 01:08:06;;;;;;;4.38;3.80;;;20.00;78.50;;;;;;4225616;28;20222;-72
2022/03/11 01:10:10;;;;;;;4.22;3.83;;;19.90;78.00;;;;;;4223162;28;20284;-73
2022/03/11 01:12:12;;;;;;;4.18;3.78;;;19.90;78.00;;;;;;4224349;28;20230;-73
2022/03/11 01:14:15;;;;;;;4.03;3.63;;;19.90;77.90;;;;;;4223566;28;20213;-73
2022/03/11 01:16:17;;;;;;;4.15;3.40;;;20.00;78.10;;;;;;4224717;28;20674;-73
2022/03/11 01:18:21;;;;;;;4.22;3.83;;;20.00;78.10;;;;;;4225420;28;20267;-73
2022/03/11 01:20:24;;;;;;;4.78;3.90;;;20.00;78.50;;;;;;4226113;28;21029;-73
2022/03/11 01:22:27;;;;;;;4.43;3.80;;;19.90;78.10;;;;;;4224655;28;20210;-72
2022/03/11 01:24:29;;;;;;;4.85;3.60;;;19.90;78.60;;;;;;4223566;28;20221;-73
2022/03/11 01:26:32;;;;;;;3.88;3.47;;;19.90;78.20;;;;;;4224407;28;20278;-73
2022/03/11 01:28:34;;;;;;;4.30;3.83;;;19.90;78.40;;;;;;4222291;28;20682;-73
2022/03/11 01:30:37;;;;;;;4.07;3.70;;;19.80;77.90;;;;;;4224590;28;20214;-73
2022/03/11 01:32:39;;;;;;;4.82;3.92;;;19.90;78.10;;;;;;4225627;28;20229;-73
2022/03/11 01:34:43;;;;;;;4.30;3.80;;;19.80;78.10;;;;;;4224632;28;20214;-73
2022/03/11 01:36:45;;;;;;;3.90;3.50;;;19.80;78.10;;;;;;4224909;28;20217;-73
2022/03/11 01:38:48;;;;;;;4.07;3.67;;;19.80;78.00;;;;;;4225315;28;20262;-73
2022/03/11 01:40:51;;;;;;;4.95;3.80;;;19.80;77.90;;;;;;4225455;28;20686;-73
2022/03/11 01:42:53;;;;;;;3.88;3.58;;;19.90;78.00;;;;;;4224910;28;20262;-73
2022/03/11 01:44:56;;;;;;;4.07;3.53;;;19.80;78.00;;;;;;4221612;28;20262;-73
2022/03/11 01:46:58;;;;;;;4.63;3.65;;;19.80;77.80;;;;;;4224081;28;20218;-73
2022/03/11 01:49:02;;;;;;;3.67;3.33;;;19.80;77.80;;;;;;4225251;28;21009;-73
2022/03/11 01:51:06;;;;;;;3.55;3.25;;;19.80;77.70;;;;;;4224079;28;20213;-73
2022/03/11 01:53:09;;;;;;;4.72;3.70;;;19.80;77.90;;;;;;4223181;28;20270;-73
2022/03/11 01:55:12;;;;;;;4.28;3.40;;;19.80;77.50;;;;;;4221946;28;20300;-72
2022/03/11 01:57:14;;;;;;;3.70;3.40;;;19.80;77.50;;;;;;4224153;28;20217;-72
2022/03/11 01:59:17;;;;;;;4.70;3.92;;;19.80;77.50;;;;;;4223460;28;20222;-73
2022/03/11 02:01:20;;;;;;;3.63;3.33;;;19.80;77.30;;;;;;4223957;28;20246;-73
2022/03/11 02:03:22;;;;;;;4.07;3.67;;;19.80;77.30;;;;;;4222946;28;20213;-73
2022/03/11 02:05:26;;;;;;;5.10;3.53;;;19.80;77.30;;;;;;4223918;28;20650;-73
2022/03/11 02:07:30;;;;;;;3.72;3.33;;;19.80;77.40;;;;;;4222059;28;20270;-73
2022/03/11 02:09:33;;;;;;;4.93;3.28;;;19.80;77.50;;;;;;4224068;28;20206;-72
2022/03/11 02:11:36;;;;;;;3.97;3.47;;;19.80;77.40;;;;;;4224794;28;20214;-73
2022/03/11 02:13:47;;;;;;;4.72;3.20;;;19.80;77.00;;;;;;4222506;28;20221;-73
2022/03/11 02:15:49;;;;;;;3.50;3.20;;;19.80;77.20;;;;;;4222905;28;20213;-73
2022/03/11 02:17:51;;;;;;;3.75;3.40;;;19.80;77.20;;;;;;4222834;28;20225;-73
2022/03/11 02:19:54;;;;;;;3.72;3.42;;;19.70;77.30;;;;;;4222820;28;20217;-73
2022/03/11 02:21:58;;;;;;;4.10;3.50;;;19.70;77.30;;;;;;4224845;28;20319;-73
2022/03/11 02:24:02;;;;;;;3.60;3.25;;;19.80;77.50;;;;;;4223375;28;21008;-73
2022/03/11 02:26:05;;;;;;;3.42;3.10;;;19.70;77.30;;;;;;4224501;28;20222;-73
2022/03/11 02:28:07;;;;;;;4.65;3.88;;;19.70;77.10;;;;;;4224913;28;20247;-73
2022/03/11 02:30:14;;;;;;;4.25;3.50;;;19.70;77.30;;;;;;4224832;28;20218;-73
2022/03/11 02:32:17;;;;;;;3.40;3.10;;;19.70;77.30;;;;;;4224849;28;20214;-73
2022/03/11 02:34:19;;;;;;;4.85;3.50;;;19.70;77.30;;;;;;4223984;28;20262;-73
2022/03/11 02:36:22;;;;;;;3.90;3.47;;;19.70;77.10;;;;;;4222565;28;20217;-73
2022/03/11 02:38:24;;;;;;;3.70;3.15;;;19.70;77.00;;;;;;4223889;28;21638;-73
2022/03/11 02:40:28;;;;;;;5.03;3.35;;;19.70;77.20;;;;;;4223762;28;20268;-73
2022/03/11 02:42:30;;;;;;;3.88;3.47;;;19.60;76.80;;;;;;4223408;28;20210;-73
2022/03/11 02:44:33;;;;;;;3.75;3.25;;;19.70;76.90;;;;;;4223335;28;20217;-73
2022/03/11 02:46:35;;;;;;;4.05;3.22;;;19.70;76.80;;;;;;4224165;28;20255;-72
2022/03/11 02:48:38;;;;;;;3.42;3.13;;;19.70;77.10;;;;;;4224613;28;20235;-73
2022/03/11 02:50:40;;;;;;;3.30;3.00;;;19.70;76.80;;;;;;4222263;28;20210;-73
2022/03/11 02:52:43;;;;;;;3.85;3.45;;;19.70;77.00;;;;;;4222607;28;20222;-73
2022/03/11 02:54:45;;;;;;;3.22;2.90;;;19.70;76.80;;;;;;4224247;28;20283;-73
2022/03/11 02:56:49;;;;;;;3.50;3.08;;;19.70;76.70;;;;;;4222277;28;20209;-73
2022/03/11 02:58:52;;;;;;;3.40;3.10;;;19.60;76.40;;;;;;4224260;28;20206;-73
2022/03/11 03:00:55;;;;;;;3.60;3.30;;;19.60;76.30;;;;;;4223854;28;20242;-73
2022/03/11 03:02:57;;;;;;;3.80;3.20;;;19.70;76.70;;;;;;4224421;28;20221;-73
2022/03/11 03:05:01;;;;;;;3.42;3.13;;;19.60;76.60;;;;;;4225036;28;20214;-72
2022/03/11 03:07:06;;;;;;;3.75;3.15;;;19.60;76.60;;;;;;4223431;28;20270;-72
2022/03/11 03:09:08;;;;;;;3.33;3.03;;;19.60;76.50;;;;;;4205738;28;20222;-73
2022/03/11 03:11:11;;;;;;;4.00;3.22;;;19.60;76.60;;;;;;4223841;28;20210;-72
2022/03/11 03:13:15;;;;;;;3.85;3.00;;;19.60;76.30;;;;;;4223506;28;20213;-73
2022/03/11 03:15:17;;;;;;;3.30;3.00;;;19.60;76.30;;;;;;4223018;28;20217;-73
2022/03/11 03:17:21;;;;;;;3.90;2.90;;;19.60;76.30;;;;;;4222608;28;20238;-73
2022/03/11 03:19:23;;;;;;;3.85;3.38;;;19.60;76.40;;;;;;4227883;28;20210;-72
2022/03/11 03:21:27;;;;;;;4.03;2.83;;;19.60;76.50;;;;;;4227679;28;20241;-73
2022/03/11 03:23:29;;;;;;;3.47;3.10;;;19.60;76.40;;;;;;4227976;28;20213;-73
2022/03/11 03:25:32;;;;;;;3.97;3.45;;;19.60;77.10;;;;;;4227387;28;20259;-72
2022/03/11 03:27:34;;;;;;;3.65;3.25;;;19.60;76.20;;;;;;4225856;28;20263;-73
2022/03/11 03:29:38;;;;;;;3.30;3.00;;;19.60;76.20;;;;;;4227642;28;20235;-73
2022/03/11 03:31:41;;;;;;;3.30;3.00;;;19.50;76.20;;;;;;4227181;28;20218;-73
2022/03/11 03:33:43;;;;;;;3.53;3.22;;;19.50;76.80;;;;;;4227749;28;20266;-72
2022/03/11 03:35:45;;;;;;;3.25;2.95;;;19.50;75.80;;;;;;4226987;28;20213;-73
2022/03/11 03:37:48;;;;;;;3.88;3.45;;;19.50;75.80;;;;;;4227715;28;20218;-73
2022/03/11 03:39:50;;;;;;;3.08;2.78;;;19.50;75.80;;;;;;4226641;28;20256;-72
2022/03/11 03:41:53;;;;;;;3.55;3.25;;;19.50;75.90;;;;;;4225721;28;20274;-72
2022/03/11 03:43:55;;;;;;;3.30;3.00;;;19.50;75.70;;;;;;4224293;28;20218;-73
2022/03/11 03:45:59;;;;;;;4.72;3.47;;;19.50;75.80;;;;;;4227257;28;20222;-72
2022/03/11 03:48:02;;;;;;;2.97;2.67;;;19.50;75.90;;;;;;4227022;28;20218;-73
2022/03/11 03:50:05;;;;;;;3.10;2.80;;;19.50;75.70;;;;;;4225921;28;20262;-72
2022/03/11 03:52:11;;;;;;;3.45;2.85;;;19.50;75.60;;;;;;4226416;28;20221;-72
2022/03/11 03:54:15;;;;;;;3.83;3.13;;;19.50;75.60;;;;;;4226545;28;20263;-73
2022/03/11 03:56:17;;;;;;;3.38;3.05;;;19.50;75.60;;;;;;4227003;28;20218;-72
2022/03/11 03:58:20;;;;;;;3.28;2.90;;;19.40;75.50;;;;;;4227137;28;20210;-72
2022/03/11 04:00:22;;;;;;;4.57;3.08;;;19.50;75.50;;;;;;4226819;28;20255;-73
2022/03/11 04:02:26;;;;;;;4.22;3.00;;;19.50;75.60;;;;;;4225721;28;20282;-72
2022/03/11 04:04:28;;;;;;;3.55;3.00;;;19.40;75.30;;;;;;4226317;28;20221;-73
2022/03/11 04:06:31;;;;;;;2.95;2.60;;;19.50;75.60;;;;;;4225943;28;20221;-73
2022/03/11 04:08:34;;;;;;;3.25;2.90;;;19.40;75.40;;;;;;4226182;28;20263;-72
2022/03/11 04:10:37;;;;;;;3.38;2.97;;;19.50;76.30;;;;;;4226748;28;20262;-73
2022/03/11 04:12:39;;;;;;;3.25;2.83;;;19.40;75.50;;;;;;4225509;28;20214;-72
2022/03/11 04:14:42;;;;;;;3.60;3.13;;;19.40;75.50;;;;;;4226828;28;20214;-73
2022/03/11 04:16:44;;;;;;;3.10;2.80;;;19.40;75.20;;;;;;4226141;28;20267;-72
2022/03/11 04:18:49;;;;;;;3.28;2.97;;;19.40;75.40;;;;;;4225759;28;20217;-72
2022/03/11 04:20:53;;;;;;;3.17;2.75;;;19.40;75.10;;;;;;4226883;28;20233;-72
2022/03/11 04:22:56;;;;;;;3.50;2.92;;;19.40;75.40;;;;;;4226672;28;20286;-73
2022/03/11 04:24:58;;;;;;;3.03;2.78;;;19.50;75.60;;;;;;4226456;28;20304;-72
2022/03/11 04:27:01;;;;;;;3.15;2.85;;;19.40;75.40;;;;;;4226590;28;20210;-73
2022/03/11 04:29:04;;;;;;;2.97;2.67;;;19.40;75.50;;;;;;4226110;28;20213;-72
2022/03/11 04:31:07;;;;;;;3.40;3.03;;;19.40;75.40;;;;;;4226539;28;20234;-73
2022/03/11 04:33:09;;;;;;;3.05;2.67;;;19.40;75.10;;;;;;4226625;28;20741;-73
2022/03/11 04:35:13;;;;;;;3.05;2.45;;;19.40;75.00;;;;;;4224374;28;20274;-72
2022/03/11 04:37:16;;;;;;;3.10;2.80;;;19.40;75.10;;;;;;4224708;28;20214;-73
2022/03/11 04:39:18;;;;;;;2.58;2.38;;;19.40;75.20;;;;;;4225337;28;20596;-72
2022/03/11 04:41:21;;;;;;;2.95;2.70;;;19.40;75.00;;;;;;4226538;28;20699;-72
2022/03/11 04:43:23;;;;;;;3.60;2.90;;;19.30;74.90;;;;;;4225806;28;20226;-72
2022/03/11 04:45:26;;;;;;;3.20;2.83;;;19.30;74.90;;;;;;4225986;28;20251;-73
2022/03/11 04:47:28;;;;;;;2.55;2.35;;;19.30;74.70;;;;;;4226350;28;20217;-73
2022/03/11 04:49:32;;;;;;;2.65;2.42;;;19.30;74.70;;;;;;4225922;28;20218;-72
2022/03/11 04:51:36;;;;;;;4.15;2.75;;;19.40;75.10;;;;;;4224784;28;20263;-72
2022/03/11 04:53:38;;;;;;;4.10;3.13;;;19.30;74.70;;;;;;4225250;28;20251;-72
2022/03/11 04:55:40;;;;;;;3.58;2.80;;;19.30;74.80;;;;;;4225690;28;20275;-72
2022/03/11 04:57:43;;;;;;;3.10;2.80;;;19.30;74.80;;;;;;4226038;28;20218;-72
2022/03/11 04:59:45;;;;;;;3.47;2.78;;;19.30;74.50;;;;;;4226486;28;20267;-73
2022/03/11 05:01:47;;;;;;;3.25;2.55;;;19.30;74.50;;;;;;4226219;28;20218;-73
2022/03/11 05:03:50;;;;;;;4.20;2.85;;;19.30;74.50;;;;;;4226273;28;20267;-72
2022/03/11 05:05:53;;;;;;;3.00;2.70;;;19.30;74.50;;;;;;4224627;28;20214;-72
2022/03/11 05:08:00;;;;;;;2.88;2.55;;;19.30;74.50;;;;;;4225586;28;20221;-73
2022/03/11 05:10:03;;;;;;;2.85;2.60;;;19.30;74.50;;;;;;4224531;28;20209;-72
2022/03/11 05:12:06;;;;;;;3.08;2.78;;;19.30;74.50;;;;;;4226273;28;20209;-72
2022/03/11 05:14:08;;;;;;;3.15;2.85;;;19.30;74.50;;;;;;4224480;28;20252;-72
2022/03/11 05:16:11;;;;;;;2.85;2.65;;;19.30;74.50;;;;;;4225971;28;20232;-72
2022/03/11 05:18:13;;;;;;;2.70;2.50;;;19.30;74.50;;;;;;4225803;28;20237;-72
2022/03/11 05:20:16;;;;;;;3.08;2.72;;;19.30;74.50;;;;;;4225521;28;20213;-72
2022/03/11 05:22:18;;;;;;;3.97;2.80;;;19.30;74.50;;;;;;4224864;28;20241;-73
2022/03/11 05:24:23;;;;;;;3.53;3.05;;;19.20;74.40;;;;;;4225469;28;20221;-73
2022/03/11 05:26:28;;;;;;;2.95;2.65;;;19.20;74.40;;;;;;4223107;28;20214;-72
2022/03/11 05:28:31;;;;;;;3.20;2.78;;;19.20;74.40;;;;;;4224382;28;20602;-73
2022/03/11 05:30:34;;;;;;;3.20;2.88;;;19.20;74.40;;;;;;4223576;28;20628;-72
2022/03/11 05:32:42;;;;;;;3.20;2.70;;;19.20;74.40;;;;;;4224952;28;20214;-73
2022/03/11 05:34:44;;;;;;;3.35;2.90;;;19.20;74.40;;;;;;4225618;28;20201;-72
2022/03/11 05:36:46;;;;;;;3.13;2.78;;;19.20;74.40;;;;;;4223967;28;20217;-72
2022/03/11 05:38:49;;;;;;;3.28;2.75;;;19.20;74.30;;;;;;4223162;28;20262;-73
2022/03/11 05:40:53;;;;;;;3.75;2.58;;;19.20;74.30;;;;;;4224300;28;20839;-72
2022/03/11 05:42:55;;;;;;;3.38;2.90;;;19.20;74.40;;;;;;4222706;28;20275;-73
2022/03/11 05:44:58;;;;;;;2.92;2.50;;;19.20;74.20;;;;;;4225999;28;20218;-73
2022/03/11 05:47:00;;;;;;;3.22;2.60;;;19.20;74.20;;;;;;4222636;28;20287;-72
2022/03/11 05:49:03;;;;;;;3.05;2.67;;;19.10;74.10;;;;;;4225332;28;20218;-73
2022/03/11 05:51:05;;;;;;;2.55;2.35;;;19.10;74.30;;;;;;4224408;28;20730;-73
2022/03/11 05:53:08;;;;;;;3.22;2.90;;;19.20;74.30;;;;;;4223795;28;20202;-72
2022/03/11 05:55:11;;;;;;;2.75;2.53;;;19.00;73.70;;;;;;4223375;28;20218;-72
2022/03/11 05:57:15;;;;;;;2.97;2.67;;;19.10;74.00;;;;;;4224957;28;20214;-73
2022/03/11 05:59:17;;;;;;;3.10;2.80;;;18.90;74.00;;;;;;4222608;28;20222;-73
2022/03/11 06:01:20;;;;;;;3.28;2.80;;;18.90;74.10;;;;;;4222625;28;20222;-72
2022/03/11 06:03:22;;;;;;;3.95;3.05;;;19.00;72.90;;;;;;4224162;28;20237;-72
2022/03/11 06:05:25;;;;;;;4.18;2.80;;;19.00;73.30;;;;;;4224228;28;20213;-73
2022/03/11 06:07:27;;;;;;;3.22;2.80;;;19.10;74.20;;;;;;4223209;28;20239;-73
2022/03/11 06:09:30;;;;;;;3.60;2.90;;;19.10;74.30;;;;;;4224511;28;20266;-72
2022/03/11 06:11:32;;;;;;;3.33;2.78;;;19.10;74.60;;;;;;4223137;28;20247;-72
2022/03/11 06:13:36;;;;;;;3.08;2.75;;;19.20;75.30;;;;;;4224511;28;20255;-73
2022/03/11 06:15:39;;;;;;;2.80;2.45;;;19.10;75.90;;;;;;4222612;28;20236;-73
2022/03/11 06:17:41;;;;;;;2.97;2.67;;;19.20;76.30;;;;;;4220662;28;20283;-72
2022/03/11 06:19:44;;;;;;;2.63;2.42;;;19.20;77.20;;;;;;4223050;28;20222;-73
2022/03/11 06:21:46;;;;;;;4.28;2.78;;;19.20;77.10;;;;;;4223588;28;20207;-73
2022/03/11 06:23:48;;;;;;;2.95;2.65;;;19.20;77.30;;;;;;4223544;28;20260;-73
2022/03/11 06:25:51;;;;;;;3.10;2.80;;;19.20;77.90;;;;;;4224674;28;21729;-73
2022/03/11 06:27:54;;;;;;;3.30;2.88;;;19.20;78.00;;;;;;4223880;28;20206;-73
2022/03/11 06:29:57;;;;;;;2.88;2.50;;;19.20;77.70;;;;;;4224185;28;20655;-73
2022/03/11 06:32:00;;;;;;;3.22;2.60;;;19.20;77.30;;;;;;4224035;28;20721;-73
2022/03/11 06:34:03;;;;;;;2.92;2.58;;;19.20;78.10;;;;;;4219352;28;20267;-73
2022/03/11 06:36:06;;;;;;;2.33;1.98;;;19.20;78.20;;;;;;4224955;28;20622;-73
2022/03/11 06:38:08;;;;;;;3.60;2.65;;;19.20;78.10;;;;;;4224791;28;20213;-73
2022/03/11 06:40:12;;;;;;;3.15;2.50;;;19.30;78.30;;;;;;4222787;28;20627;-73
2022/03/11 06:42:14;;;;;;;3.63;2.78;;;19.30;78.40;;;;;;4225293;28;20222;-73
2022/03/11 06:44:17;;;;;;;3.00;2.65;;;19.30;78.50;;;;;;4225223;28;20629;-73
2022/03/11 06:46:21;;;;;;;3.47;2.72;;;19.30;79.00;;;;;;4225309;28;20263;-73
2022/03/11 06:48:23;;;;;;;2.78;2.58;;;19.30;79.30;;;;;;4225298;28;20213;-73
2022/03/11 06:50:26;;;;;;;3.05;2.47;;;19.30;79.30;;;;;;4223722;28;20362;-73
2022/03/11 06:52:29;;;;;;;2.60;2.40;;;19.30;78.90;;;;;;4226080;28;20213;-73
2022/03/11 06:54:31;;;;;;;2.75;2.40;;;19.30;79.30;;;;;;4228739;28;20613;-73
2022/03/11 06:56:34;;;;;;;2.92;2.63;;;19.30;79.60;;;;;;4227795;28;20270;-73
2022/03/11 06:58:36;;;;;;;3.33;2.50;;;19.40;79.50;;;;;;4222777;28;20275;-73
2022/03/11 07:00:39;;;;;;;3.28;2.35;;;19.40;79.60;;;;;;4228974;28;20270;-73
2022/03/11 07:02:43;;;;;;;2.88;2.60;;;19.40;79.80;;;;;;4226379;28;20221;-73
2022/03/11 07:04:46;;;;;;;2.85;2.50;;;19.40;80.30;;;;;;4227792;28;20731;-73
2022/03/11 07:06:48;;;;;;;3.42;2.45;;;19.40;80.20;;;;;;4226539;28;20218;-73
2022/03/11 07:08:51;;;;;;;3.40;2.65;;;19.40;80.30;;;;;;4226589;28;20214;-73
2022/03/11 07:10:53;;;;;;;2.45;2.25;;;19.40;80.30;;;;;;4228739;28;20248;-73
2022/03/11 07:12:58;;;;;;;2.20;2.00;;;19.50;80.00;;;;;;4228264;28;20271;-73
2022/03/11 07:15:01;;;;;;;3.60;2.50;;;19.50;80.30;;;;;;4227835;28;20291;-73
2022/03/11 07:17:04;;;;;;;3.17;2.83;;;19.50;80.40;;;;;;4228160;28;20942;-73
2022/03/11 07:19:09;;;;;;;2.95;2.58;;;19.50;80.40;;;;;;4228593;28;20217;-73
2022/03/11 07:21:11;;;;;;;2.83;2.30;;;19.50;80.40;;;;;;4228970;28;20567;-73
2022/03/11 07:23:14;;;;;;;3.20;2.55;;;19.60;80.60;;;;;;4227386;28;20239;-73
2022/03/11 07:25:17;;;;;;;2.40;2.20;;;19.50;80.50;;;;;;4224214;28;20205;-73
2022/03/11 07:27:21;;;;;;;2.72;2.50;;;19.60;80.50;;;;;;4226872;28;20230;-73
2022/03/11 07:29:24;;;;;;;2.90;2.30;;;19.60;80.80;;;;;;4227540;28;20217;-73
2022/03/11 07:31:26;;;;;;;2.90;2.33;;;19.60;81.20;;;;;;4227207;28;20206;-73
2022/03/11 07:33:29;;;;;;;2.42;2.13;;;19.60;81.10;;;;;;4227044;28;20551;-73
2022/03/11 07:35:33;;;;;;;2.33;2.05;;;19.70;81.50;;;;;;4224668;28;20279;-73
2022/03/11 07:37:35;;;;;;;2.28;2.08;;;19.70;80.60;;;;;;4227596;28;20262;-73
2022/03/11 07:39:37;;;;;;;2.80;2.15;;;19.70;81.00;;;;;;4227282;28;20211;-73
2022/03/11 07:41:40;;;;;;;3.00;2.70;;;19.80;80.60;;;;;;4226584;28;20221;-73
2022/03/11 07:43:44;;;;;;;2.35;2.15;;;19.80;81.40;;;;;;4226484;28;20237;-72
2022/03/11 07:45:47;;;;;;;10.25;3.20;;;19.80;81.10;;;;;;4224058;27;20214;-74
2022/03/11 07:47:49;;;;;;;22.80;6.45;;;19.70;78.00;;;;;;4226956;28;20210;-74
2022/03/11 07:49:52;;;;;;;231.45;23.08;;;19.40;72.40;;;;;;4223972;28;20608;-75
2022/03/11 07:51:56;;;;;;;113.57;14.30;;;19.20;73.10;;;;;;4224332;27;20218;-74
2022/03/11 07:53:59;;;;;;;78.22;9.40;;;19.30;74.50;;;;;;4227710;27;21009;-75
2022/03/11 07:56:04;;;;;;;63.33;7.97;;;19.50;74.80;;;;;;4227591;27;20282;-74
2022/03/11 07:58:06;;;;;;;60.95;7.85;;;19.60;76.60;;;;;;4223588;27;20628;-75
2022/03/11 08:00:10;;;;;;;51.83;7.72;;;19.80;76.60;;;;;;4226925;28;20274;-75
2022/03/11 08:02:16;;;;;;;34.80;5.88;;;19.90;75.80;;;;;;4225493;28;20255;-74
2022/03/11 08:04:18;;;;;;;22.90;4.75;;;19.90;75.40;;;;;;4225465;28;20282;-73
2022/03/11 08:06:22;;;;;;;23.05;4.95;;;20.00;76.00;;;;;;4226390;28;20258;-73
2022/03/11 08:08:26;;;;;;;19.60;4.55;;;20.00;77.10;;;;;;4222609;27;20682;-72
2022/03/11 08:10:29;;;;;;;26.60;4.63;;;20.00;78.50;;;;;;4221095;28;20247;-72
2022/03/11 08:12:31;;;;;;;20.05;4.07;;;20.10;78.10;;;;;;4224413;28;20302;-73
2022/03/11 08:14:34;;;;;;;16.75;4.57;;;20.20;77.50;;;;;;4220001;27;20248;-72
2022/03/11 08:16:36;;;;;;;28.75;5.10;;;20.20;76.40;;;;;;4221565;28;20222;-73
2022/03/11 08:18:39;;;;;;;19.40;4.63;;;20.30;75.60;;;;;;4225046;27;20267;-72
2022/03/11 08:20:41;;;;;;;21.63;4.30;;;20.30;76.10;;;;;;4220147;27;20723;-72
2022/03/11 08:23:02;;;;;;;16.13;4.13;;;20.20;77.30;;;;;;4226755;28;20235;-73
2022/03/11 08:25:11;;;;;;;28.55;4.72;;;20.20;79.70;;;;;;4225238;27;20252;-73
2022/03/11 08:27:15;;;;;;;14.50;3.70;;;20.30;78.00;;;;;;4224197;28;20217;-74
2022/03/11 08:29:19;;;;;;;17.67;3.70;;;20.30;79.10;;;;;;4223632;28;20615;-73
2022/03/11 08:31:22;;;;;;;21.13;4.40;;;20.30;77.90;;;;;;4223893;27;20593;-72
2022/03/11 08:33:24;;;;;;;16.85;3.95;;;20.30;75.20;;;;;;4217320;28;20264;-73
2022/03/11 08:35:27;;;;;;;21.98;4.50;;;20.40;75.50;;;;;;4218347;28;20263;-71
2022/03/11 08:37:30;;;;;;;23.92;4.53;;;20.40;76.40;;;;;;4222557;28;20222;-72
2022/03/11 08:39:33;;;;;;;17.02;3.72;;;20.40;76.60;;;;;;4222889;28;20222;-71
2022/03/11 08:41:36;;;;;;;17.60;3.65;;;20.40;76.30;;;;;;4223412;28;20210;-72
2022/03/11 08:43:41;;;;;;;12.73;3.53;;;20.50;77.80;;;;;;4226367;28;20209;-71
2022/03/11 08:45:44;;;;;;;11.73;3.42;;;20.40;80.20;;;;;;4226109;27;20206;-72
2022/03/11 08:47:46;;;;;;;12.75;3.53;;;20.50;78.30;;;;;;4224810;28;20214;-72
2022/03/11 08:49:48;;;;;;;13.30;3.40;;;20.50;78.70;;;;;;4220184;27;20927;-71
2022/03/11 08:51:51;;;;;;;13.65;4.32;;;20.60;79.60;;;;;;4221975;27;20217;-72
2022/03/11 08:53:53;;;;;;;12.32;3.00;;;20.60;80.00;;;;;;4220650;28;20267;-72
2022/03/11 08:55:56;;;;;;;12.65;3.53;;;20.60;80.20;;;;;;4223093;28;20210;-71
2022/03/11 08:57:59;;;;;;;14.68;3.28;;;20.70;80.60;;;;;;4221995;28;20256;-72
2022/03/11 09:00:02;;;;;;;14.13;3.35;;;20.60;80.50;;;;;;4224655;27;20259;-72
2022/03/11 09:02:07;;;;;;;10.35;3.40;;;20.70;80.70;;;;;;4226282;27;20279;-72
2022/03/11 09:04:09;;;;;;;10.35;4.55;;;20.80;81.60;;;;;;4222306;27;21048;-72
2022/03/11 09:06:11;;;;;;;12.18;3.45;;;20.80;81.60;;;;;;4223173;28;20262;-71
2022/03/11 09:08:14;;;;;;;9.43;3.42;;;20.80;81.80;;;;;;4221038;27;20731;-72
2022/03/11 09:10:18;;;;;;;7.43;3.30;;;20.80;81.80;;;;;;4221864;28;20210;-72
2022/03/11 09:12:20;;;;;;;10.77;3.10;;;20.80;82.00;;;;;;4223429;28;20217;-71
2022/03/11 09:14:24;;;;;;;12.15;3.25;;;20.90;82.10;;;;;;4220733;27;20836;-72
2022/03/11 09:16:27;;;;;;;8.48;3.40;;;20.90;82.20;;;;;;4217911;28;20205;-72
2022/03/11 09:18:29;;;;;;;11.55;2.88;;;20.90;81.70;;;;;;4222563;28;20279;-72
2022/03/11 09:20:31;;;;;;;11.48;3.05;;;20.90;82.20;;;;;;4223950;28;20214;-71
2022/03/11 09:22:35;;;;;;;9.40;3.35;;;21.00;83.10;;;;;;4221745;28;20290;-71
2022/03/11 09:24:37;;;;;;;10.80;3.35;;;20.90;83.20;;;;;;4218256;28;20754;-72
2022/03/11 09:26:39;;;;;;;7.55;2.72;;;20.90;82.60;;;;;;4221544;28;20267;-72
2022/03/11 09:28:42;;;;;;;7.50;3.03;;;21.00;82.50;;;;;;4222780;28;20217;-73
2022/03/11 09:30:46;;;;;;;8.57;3.33;;;21.00;83.50;;;;;;4218610;28;20271;-73
2022/03/11 09:32:48;;;;;;;7.07;2.78;;;21.00;83.30;;;;;;4220415;28;20255;-71
2022/03/11 09:34:50;;;;;;;7.68;2.78;;;21.00;81.20;;;;;;4220358;28;20217;-71
2022/03/11 09:36:53;;;;;;;10.25;3.22;;;21.00;81.70;;;;;;4223833;27;20214;-71
2022/03/11 09:38:55;;;;;;;6.82;3.13;;;21.10;81.60;;;;;;4222035;27;20210;-72
2022/03/11 09:40:59;;;;;;;11.20;3.72;;;21.00;81.00;;;;;;4223097;28;20259;-71
2022/03/11 09:43:02;;;;;;;6.38;2.97;;;21.10;83.20;;;;;;4222548;28;20619;-72
2022/03/11 09:45:05;;;;;;;9.05;3.50;;;21.10;81.20;;;;;;4219958;28;20249;-72
2022/03/11 09:47:09;;;;;;;10.73;3.00;;;21.00;80.90;;;;;;4222870;28;20682;-71
2022/03/11 09:49:13;;;;;;;4.90;2.80;;;21.00;80.90;;;;;;4223546;27;20259;-71
2022/03/11 09:51:17;;;;;;;10.18;2.97;;;21.10;81.60;;;;;;4213976;28;20295;-72
2022/03/11 09:53:21;;;;;;;8.63;3.38;;;21.10;81.60;;;;;;4212552;28;20205;-71
2022/03/11 09:55:24;;;;;;;5.93;3.17;;;21.10;81.00;;;;;;4215968;28;20213;-70
2022/03/11 09:57:27;;;;;;;9.63;3.22;;;21.10;82.20;;;;;;4219071;28;20213;-72
2022/03/11 09:59:29;;;;;;;9.15;3.60;;;21.10;81.00;;;;;;4220410;28;20218;-72
2022/03/11 10:01:32;;;;;;;15.52;3.80;;;21.00;81.00;;;;;;4224942;28;20602;-72
2022/03/11 10:03:38;;;;;;;8.32;2.63;;;21.10;81.10;;;;;;4219505;28;20218;-71
2022/03/11 10:05:48;;;;;;;6.45;2.92;;;21.10;81.80;;;;;;4222585;28;20233;-71
2022/03/11 10:08:00;;;;;;;12.70;3.58;;;21.20;83.20;;;;;;4224327;28;20250;-74
2022/03/11 10:10:13;;;;;;;8.38;3.53;;;21.10;81.10;;;;;;4219682;27;20270;-72
2022/03/11 10:12:21;;;;;;;9.30;3.75;;;21.00;80.20;;;;;;4222570;28;20270;-71
2022/03/11 10:14:29;;;;;;;21.13;4.47;;;21.00;79.80;;;;;;4213852;28;20221;-73
2022/03/11 10:16:32;;;;;;;8.30;3.35;;;20.90;79.60;;;;;;4212392;28;20209;-72
2022/03/11 10:18:36;;;;;;;37.08;6.40;;;21.00;80.60;;;;;;4217306;28;20278;-72
2022/03/11 10:20:38;;;;;;;24.67;5.30;;;21.00;80.60;;;;;;4221413;27;20209;-74
2022/03/11 10:22:45;;;;;;;15.63;3.33;;;21.10;79.60;;;;;;4221946;28;20209;-72
2022/03/11 10:24:47;;;;;;;15.25;3.05;;;21.20;81.10;;;;;;4217987;28;20620;-71
2022/03/11 10:26:51;;;;;;;11.45;3.00;;;21.20;81.30;;;;;;4220866;28;20217;-73
2022/03/11 10:28:57;;;;;;;6.68;2.60;;;21.20;83.10;;;;;;4219600;28;20321;-71
2022/03/11 10:31:10;;;;;;;34.25;4.40;;;21.30;84.50;;;;;;4219476;28;20278;-72
2022/03/11 10:33:16;;;;;;;10.90;3.45;;;21.30;81.30;;;;;;4217735;28;20263;-77
2022/03/11 10:35:20;;;;;;;15.15;2.88;;;21.40;81.50;;;;;;4221569;28;20201;-75
2022/03/11 10:37:26;;;;;;;9.07;3.00;;;21.50;81.70;;;;;;4221644;28;20205;-71
2022/03/11 10:39:30;;;;;;;10.55;3.05;;;21.40;82.00;;;;;;4221332;28;20225;-72